sensor_id;sensor_type;location;lat;lon;timestamp;P1;durP1;ratioP1;P2;durP2;ratioP2
3589;SDS011;1809;48.470;9.226;2023-01-10T00:01:53;1.03;;;0.80;;
3589;SDS011;1809;48.470;9.226;2023-01-10T00:04:20;0.97;;;0.80;;
3589;SDS011;1809;48.470;9.226;2023-01-10T00:06:46;2.47;;;0.80;;
3589;SDS011;1809;48.470;9.226;2023-01-10T00:09:11;0.90;;;0.70;;
3589;SDS011;1809;48.470;9.226;2023-01-10T00:11:36;0.60;;;0.60;;
3589;SDS011;1809;48.470;9.226;2023-01-10T00:14:20;1.27;;;0.57;;
3589;SDS011;1809;48.470;9.226;2023-01-10T00:16:46;0.70;;;0.57;;
3589;SDS011;1809;48.470;9.226;2023-01-10T00:19:11;0.67;;;0.50;;
3589;SDS011;1809;48.470;9.226;2023-01-10T00:21:36;0.97;;;0.70;;
3589;SDS011;1809;48.470;9.226;2023-01-10T00:24:03;0.60;;;0.60;;
3589;SDS011;1809;48.470;9.226;2023-01-10T00:26:46;2.20;;;0.60;;
3589;SDS011;1809;48.470;9.226;2023-01-10T00:29:16;0.70;;;0.70;;
3589;SDS011;1809;48.470;9.226;2023-01-10T00:31:43;0.70;;;0.70;;
3589;SDS011;1809;48.470;9.226;2023-01-10T00:34:08;1.97;;;0.70;;
3589;SDS011;1809;48.470;9.226;2023-01-10T00:36:33;0.50;;;0.50;;
3589;SDS011;1809;48.470;9.226;2023-01-10T00:38:59;1.17;;;0.60;;
3589;SDS011;1809;48.470;9.226;2023-01-10T00:41:24;0.83;;;0.60;;
3589;SDS011;1809;48.470;9.226;2023-01-10T00:44:08;1.23;;;0.50;;
3589;SDS011;1809;48.470;9.226;2023-01-10T00:46:33;0.80;;;0.80;;
3589;SDS011;1809;48.470;9.226;2023-01-10T00:48:59;0.57;;;0.57;;
3589;SDS011;1809;48.470;9.226;2023-01-10T00:51:24;3.07;;;0.60;;
3589;SDS011;1809;48.470;9.226;2023-01-10T00:53:49;0.70;;;0.70;;
3589;SDS011;1809;48.470;9.226;2023-01-10T00:56:15;0.50;;;0.50;;
3589;SDS011;1809;48.470;9.226;2023-01-10T00:58:40;0.60;;;0.50;;
3589;SDS011;1809;48.470;9.226;2023-01-10T01:01:06;0.60;;;0.60;;
3589;SDS011;1809;48.470;9.226;2023-01-10T01:03:31;0.50;;;0.50;;
3589;SDS011;1809;48.470;9.226;2023-01-10T01:05:57;1.47;;;0.60;;
3589;SDS011;1809;48.470;9.226;2023-01-10T01:08:29;0.50;;;0.50;;
3589;SDS011;1809;48.470;9.226;2023-01-10T01:10:54;3.80;;;0.60;;
3589;SDS011;1809;48.470;9.226;2023-01-10T01:13:20;0.77;;;0.70;;
3589;SDS011;1809;48.470;9.226;2023-01-10T01:15:46;1.43;;;0.60;;
3589;SDS011;1809;48.470;9.226;2023-01-10T01:18:13;0.87;;;0.67;;
3589;SDS011;1809;48.470;9.226;2023-01-10T01:20:43;0.60;;;0.60;;
3589;SDS011;1809;48.470;9.226;2023-01-10T01:23:10;0.60;;;0.60;;
3589;SDS011;1809;48.470;9.226;2023-01-10T01:25:36;1.00;;;0.57;;
3589;SDS011;1809;48.470;9.226;2023-01-10T01:28:02;0.67;;;0.67;;
3589;SDS011;1809;48.470;9.226;2023-01-10T01:30:28;0.60;;;0.60;;
3589;SDS011;1809;48.470;9.226;2023-01-10T01:32:53;0.60;;;0.60;;
3589;SDS011;1809;48.470;9.226;2023-01-10T01:35:19;0.60;;;0.60;;
3589;SDS011;1809;48.470;9.226;2023-01-10T01:37:44;0.90;;;0.90;;
3589;SDS011;1809;48.470;9.226;2023-01-10T01:40:12;1.10;;;0.70;;
3589;SDS011;1809;48.470;9.226;2023-01-10T01:42:39;0.80;;;0.70;;
3589;SDS011;1809;48.470;9.226;2023-01-10T01:48:15;1.77;;;0.80;;
3589;SDS011;1809;48.470;9.226;2023-01-10T01:50:23;0.73;;;0.73;;
3589;SDS011;1809;48.470;9.226;2023-01-10T01:53:02;3.13;;;0.60;;
3589;SDS011;1809;48.470;9.226;2023-01-10T01:55:34;3.80;;;0.80;;
3589;SDS011;1809;48.470;9.226;2023-01-10T01:58:02;0.80;;;0.80;;
3589;SDS011;1809;48.470;9.226;2023-01-10T02:00:30;1.83;;;0.80;;
3589;SDS011;1809;48.470;9.226;2023-01-10T02:02:55;0.90;;;0.73;;
3589;SDS011;1809;48.470;9.226;2023-01-10T02:05:24;1.37;;;0.80;;
3589;SDS011;1809;48.470;9.226;2023-01-10T02:07:54;1.50;;;0.70;;
3589;SDS011;1809;48.470;9.226;2023-01-10T02:13:06;0.70;;;0.70;;
3589;SDS011;1809;48.470;9.226;2023-01-10T02:15:33;3.23;;;0.80;;
3589;SDS011;1809;48.470;9.226;2023-01-10T02:17:59;1.10;;;0.70;;
3589;SDS011;1809;48.470;9.226;2023-01-10T02:20:26;1.80;;;0.70;;
3589;SDS011;1809;48.470;9.226;2023-01-10T02:25:53;1.10;;;1.00;;
3589;SDS011;1809;48.470;9.226;2023-01-10T02:34:07;5.00;;;0.90;;
3589;SDS011;1809;48.470;9.226;2023-01-10T02:45:39;1.23;;;0.60;;
3589;SDS011;1809;48.470;9.226;2023-01-10T02:48:10;0.60;;;0.60;;
3589;SDS011;1809;48.470;9.226;2023-01-10T02:55:57;2.43;;;0.70;;
3589;SDS011;1809;48.470;9.226;2023-01-10T03:01:33;0.73;;;0.73;;
3589;SDS011;1809;48.470;9.226;2023-01-10T03:09:55;1.57;;;0.60;;
3589;SDS011;1809;48.470;9.226;2023-01-10T03:12:30;0.50;;;0.50;;
3589;SDS011;1809;48.470;9.226;2023-01-10T03:15:01;0.80;;;0.80;;
3589;SDS011;1809;48.470;9.226;2023-01-10T03:17:29;2.83;;;0.67;;
3589;SDS011;1809;48.470;9.226;2023-01-10T03:19:55;0.50;;;0.50;;
3589;SDS011;1809;48.470;9.226;2023-01-10T03:22:24;0.97;;;0.40;;
3589;SDS011;1809;48.470;9.226;2023-01-10T03:24:53;0.50;;;0.50;;
3589;SDS011;1809;48.470;9.226;2023-01-10T03:27:31;0.40;;;0.40;;
3589;SDS011;1809;48.470;9.226;2023-01-10T03:32:54;0.50;;;0.40;;
3589;SDS011;1809;48.470;9.226;2023-01-10T03:35:22;0.40;;;0.40;;
3589;SDS011;1809;48.470;9.226;2023-01-10T03:37:58;0.40;;;0.40;;
3589;SDS011;1809;48.470;9.226;2023-01-10T03:40:46;0.40;;;0.40;;
3589;SDS011;1809;48.470;9.226;2023-01-10T03:43:27;0.43;;;0.40;;
3589;SDS011;1809;48.470;9.226;2023-01-10T03:46:25;0.50;;;0.50;;
3589;SDS011;1809;48.470;9.226;2023-01-10T03:48:56;0.50;;;0.50;;
3589;SDS011;1809;48.470;9.226;2023-01-10T03:51:23;0.40;;;0.40;;
3589;SDS011;1809;48.470;9.226;2023-01-10T03:53:49;2.00;;;0.70;;
3589;SDS011;1809;48.470;9.226;2023-01-10T03:56:14;0.40;;;0.40;;
3589;SDS011;1809;48.470;9.226;2023-01-10T03:58:40;0.40;;;0.40;;
3589;SDS011;1809;48.470;9.226;2023-01-10T04:01:05;0.70;;;0.40;;
3589;SDS011;1809;48.470;9.226;2023-01-10T04:03:30;0.40;;;0.40;;
3589;SDS011;1809;48.470;9.226;2023-01-10T04:05:56;0.40;;;0.30;;
3589;SDS011;1809;48.470;9.226;2023-01-10T04:08:21;1.03;;;0.53;;
3589;SDS011;1809;48.470;9.226;2023-01-10T04:10:49;0.40;;;0.40;;
3589;SDS011;1809;48.470;9.226;2023-01-10T04:13:15;0.37;;;0.37;;
3589;SDS011;1809;48.470;9.226;2023-01-10T04:15:40;0.40;;;0.40;;
3589;SDS011;1809;48.470;9.226;2023-01-10T04:18:06;0.53;;;0.50;;
3589;SDS011;1809;48.470;9.226;2023-01-10T04:20:31;0.40;;;0.40;;
3589;SDS011;1809;48.470;9.226;2023-01-10T04:22:56;1.70;;;0.50;;
3589;SDS011;1809;48.470;9.226;2023-01-10T04:25:22;6.10;;;0.50;;
3589;SDS011;1809;48.470;9.226;2023-01-10T04:27:48;0.43;;;0.43;;
3589;SDS011;1809;48.470;9.226;2023-01-10T04:30:14;1.50;;;0.50;;
3589;SDS011;1809;48.470;9.226;2023-01-10T04:32:40;0.50;;;0.50;;
3589;SDS011;1809;48.470;9.226;2023-01-10T04:35:06;0.60;;;0.60;;
3589;SDS011;1809;48.470;9.226;2023-01-10T04:37:31;1.47;;;0.60;;
3589;SDS011;1809;48.470;9.226;2023-01-10T04:39:57;0.50;;;0.50;;
3589;SDS011;1809;48.470;9.226;2023-01-10T04:42:22;0.60;;;0.60;;
3589;SDS011;1809;48.470;9.226;2023-01-10T04:44:48;1.13;;;0.50;;
3589;SDS011;1809;48.470;9.226;2023-01-10T04:47:14;0.50;;;0.50;;
3589;SDS011;1809;48.470;9.226;2023-01-10T04:49:39;0.70;;;0.53;;
3589;SDS011;1809;48.470;9.226;2023-01-10T04:52:06;0.50;;;0.50;;
3589;SDS011;1809;48.470;9.226;2023-01-10T04:54:32;1.83;;;0.80;;
3589;SDS011;1809;48.470;9.226;2023-01-10T04:56:57;0.80;;;0.70;;
3589;SDS011;1809;48.470;9.226;2023-01-10T04:59:23;1.00;;;1.00;;
3589;SDS011;1809;48.470;9.226;2023-01-10T05:01:49;1.47;;;1.00;;
3589;SDS011;1809;48.470;9.226;2023-01-10T05:04:14;4.10;;;0.97;;
3589;SDS011;1809;48.470;9.226;2023-01-10T05:06:40;6.03;;;1.00;;
3589;SDS011;1809;48.470;9.226;2023-01-10T05:09:06;4.00;;;1.07;;
3589;SDS011;1809;48.470;9.226;2023-01-10T05:11:32;3.37;;;2.20;;
3589;SDS011;1809;48.470;9.226;2023-01-10T05:13:57;2.30;;;1.30;;
3589;SDS011;1809;48.470;9.226;2023-01-10T05:16:23;9.17;;;0.97;;
3589;SDS011;1809;48.470;9.226;2023-01-10T05:18:49;3.63;;;1.83;;
3589;SDS011;1809;48.470;9.226;2023-01-10T05:21:15;4.07;;;1.33;;
3589;SDS011;1809;48.470;9.226;2023-01-10T05:23:41;2.50;;;1.10;;
3589;SDS011;1809;48.470;9.226;2023-01-10T05:26:18;4.37;;;1.40;;
3589;SDS011;1809;48.470;9.226;2023-01-10T05:28:45;5.23;;;1.40;;
3589;SDS011;1809;48.470;9.226;2023-01-10T05:31:14;5.30;;;1.40;;
3589;SDS011;1809;48.470;9.226;2023-01-10T05:33:48;6.90;;;1.40;;
3589;SDS011;1809;48.470;9.226;2023-01-10T05:36:16;3.87;;;1.90;;
3589;SDS011;1809;48.470;9.226;2023-01-10T05:38:43;7.70;;;1.60;;
3589;SDS011;1809;48.470;9.226;2023-01-10T05:41:09;5.77;;;2.77;;
3589;SDS011;1809;48.470;9.226;2023-01-10T05:43:35;9.23;;;2.10;;
3589;SDS011;1809;48.470;9.226;2023-01-10T05:46:00;7.47;;;2.23;;
3589;SDS011;1809;48.470;9.226;2023-01-10T05:48:26;3.53;;;1.80;;
3589;SDS011;1809;48.470;9.226;2023-01-10T05:50:52;9.43;;;2.27;;
3589;SDS011;1809;48.470;9.226;2023-01-10T05:53:17;3.10;;;1.53;;
3589;SDS011;1809;48.470;9.226;2023-01-10T05:55:43;5.23;;;1.90;;
3589;SDS011;1809;48.470;9.226;2023-01-10T05:58:16;6.13;;;2.30;;
3589;SDS011;1809;48.470;9.226;2023-01-10T06:00:41;3.57;;;1.87;;
3589;SDS011;1809;48.470;9.226;2023-01-10T06:03:07;19.63;;;2.97;;
3589;SDS011;1809;48.470;9.226;2023-01-10T06:05:32;16.97;;;2.57;;
3589;SDS011;1809;48.470;9.226;2023-01-10T06:07:58;7.40;;;2.13;;
3589;SDS011;1809;48.470;9.226;2023-01-10T06:10:23;5.40;;;2.03;;
3589;SDS011;1809;48.470;9.226;2023-01-10T06:12:49;23.43;;;2.70;;
3589;SDS011;1809;48.470;9.226;2023-01-10T06:15:14;9.10;;;2.03;;
3589;SDS011;1809;48.470;9.226;2023-01-10T06:17:41;3.17;;;2.10;;
3589;SDS011;1809;48.470;9.226;2023-01-10T06:20:10;6.13;;;1.90;;
3589;SDS011;1809;48.470;9.226;2023-01-10T06:22:38;7.53;;;2.03;;
3589;SDS011;1809;48.470;9.226;2023-01-10T06:25:04;10.70;;;2.40;;
3589;SDS011;1809;48.470;9.226;2023-01-10T06:27:31;8.70;;;2.50;;
3589;SDS011;1809;48.470;9.226;2023-01-10T06:29:56;13.77;;;3.13;;
3589;SDS011;1809;48.470;9.226;2023-01-10T06:32:25;7.00;;;2.47;;
3589;SDS011;1809;48.470;9.226;2023-01-10T06:34:51;4.47;;;2.33;;
3589;SDS011;1809;48.470;9.226;2023-01-10T06:37:17;9.10;;;2.67;;
3589;SDS011;1809;48.470;9.226;2023-01-10T06:39:42;10.60;;;3.00;;
3589;SDS011;1809;48.470;9.226;2023-01-10T06:42:10;4.83;;;2.83;;
3589;SDS011;1809;48.470;9.226;2023-01-10T06:44:35;11.30;;;2.57;;
3589;SDS011;1809;48.470;9.226;2023-01-10T06:47:01;8.00;;;3.17;;
3589;SDS011;1809;48.470;9.226;2023-01-10T06:49:26;10.03;;;4.10;;
3589;SDS011;1809;48.470;9.226;2023-01-10T06:51:54;19.33;;;4.87;;
3589;SDS011;1809;48.470;9.226;2023-01-10T06:54:20;8.87;;;2.67;;
3589;SDS011;1809;48.470;9.226;2023-01-10T06:56:46;4.10;;;2.10;;
3589;SDS011;1809;48.470;9.226;2023-01-10T06:59:12;10.97;;;3.80;;
3589;SDS011;1809;48.470;9.226;2023-01-10T07:01:38;5.50;;;2.40;;
3589;SDS011;1809;48.470;9.226;2023-01-10T07:04:04;5.17;;;1.87;;
3589;SDS011;1809;48.470;9.226;2023-01-10T07:06:29;2.40;;;1.93;;
3589;SDS011;1809;48.470;9.226;2023-01-10T07:08:55;6.30;;;2.57;;
3589;SDS011;1809;48.470;9.226;2023-01-10T07:11:21;6.33;;;2.40;;
3589;SDS011;1809;48.470;9.226;2023-01-10T07:13:47;4.70;;;1.70;;
3589;SDS011;1809;48.470;9.226;2023-01-10T07:16:13;7.30;;;3.10;;
3589;SDS011;1809;48.470;9.226;2023-01-10T07:18:40;10.97;;;3.00;;
3589;SDS011;1809;48.470;9.226;2023-01-10T07:21:07;7.27;;;2.20;;
3589;SDS011;1809;48.470;9.226;2023-01-10T07:23:33;5.70;;;2.13;;
3589;SDS011;1809;48.470;9.226;2023-01-10T07:26:04;8.90;;;2.47;;
3589;SDS011;1809;48.470;9.226;2023-01-10T07:28:31;7.60;;;1.93;;
3589;SDS011;1809;48.470;9.226;2023-01-10T07:30:59;5.20;;;2.30;;
3589;SDS011;1809;48.470;9.226;2023-01-10T07:33:28;10.83;;;1.97;;
3589;SDS011;1809;48.470;9.226;2023-01-10T07:35:55;4.90;;;2.37;;
3589;SDS011;1809;48.470;9.226;2023-01-10T07:38:21;9.10;;;3.23;;
3589;SDS011;1809;48.470;9.226;2023-01-10T07:40:47;7.27;;;2.43;;
3589;SDS011;1809;48.470;9.226;2023-01-10T07:43:13;9.40;;;2.63;;
3589;SDS011;1809;48.470;9.226;2023-01-10T07:45:41;9.13;;;3.50;;
3589;SDS011;1809;48.470;9.226;2023-01-10T07:48:08;10.47;;;2.80;;
3589;SDS011;1809;48.470;9.226;2023-01-10T07:50:34;19.60;;;3.43;;
3589;SDS011;1809;48.470;9.226;2023-01-10T07:53:01;3.50;;;2.40;;
3589;SDS011;1809;48.470;9.226;2023-01-10T07:55:28;11.03;;;3.30;;
3589;SDS011;1809;48.470;9.226;2023-01-10T07:57:54;11.07;;;3.30;;
3589;SDS011;1809;48.470;9.226;2023-01-10T08:00:20;10.13;;;2.37;;
3589;SDS011;1809;48.470;9.226;2023-01-10T08:02:46;13.13;;;2.20;;
3589;SDS011;1809;48.470;9.226;2023-01-10T08:05:11;15.67;;;2.20;;
3589;SDS011;1809;48.470;9.226;2023-01-10T08:07:38;4.30;;;2.70;;
3589;SDS011;1809;48.470;9.226;2023-01-10T08:10:04;5.23;;;2.80;;
3589;SDS011;1809;48.470;9.226;2023-01-10T08:12:30;10.83;;;2.20;;
3589;SDS011;1809;48.470;9.226;2023-01-10T08:14:56;5.50;;;2.50;;
3589;SDS011;1809;48.470;9.226;2023-01-10T08:17:21;7.97;;;2.20;;
3589;SDS011;1809;48.470;9.226;2023-01-10T08:19:47;7.90;;;2.03;;
3589;SDS011;1809;48.470;9.226;2023-01-10T08:22:12;8.20;;;2.30;;
3589;SDS011;1809;48.470;9.226;2023-01-10T08:24:37;9.93;;;3.00;;
3589;SDS011;1809;48.470;9.226;2023-01-10T08:27:03;15.23;;;3.53;;
3589;SDS011;1809;48.470;9.226;2023-01-10T08:29:29;6.73;;;1.87;;
3589;SDS011;1809;48.470;9.226;2023-01-10T08:31:54;9.93;;;2.30;;
3589;SDS011;1809;48.470;9.226;2023-01-10T08:34:20;5.53;;;1.70;;
3589;SDS011;1809;48.470;9.226;2023-01-10T08:36:48;2.40;;;1.30;;
3589;SDS011;1809;48.470;9.226;2023-01-10T08:39:18;7.90;;;1.93;;
3589;SDS011;1809;48.470;9.226;2023-01-10T08:41:46;5.70;;;2.13;;
3589;SDS011;1809;48.470;9.226;2023-01-10T08:44:12;6.57;;;1.60;;
3589;SDS011;1809;48.470;9.226;2023-01-10T08:46:39;2.10;;;1.37;;
3589;SDS011;1809;48.470;9.226;2023-01-10T08:49:05;5.20;;;1.57;;
3589;SDS011;1809;48.470;9.226;2023-01-10T08:51:30;6.67;;;1.77;;
3589;SDS011;1809;48.470;9.226;2023-01-10T08:53:55;1.97;;;1.13;;
3589;SDS011;1809;48.470;9.226;2023-01-10T08:56:21;7.83;;;1.30;;
3589;SDS011;1809;48.470;9.226;2023-01-10T08:58:46;3.50;;;1.70;;
3589;SDS011;1809;48.470;9.226;2023-01-10T09:01:11;7.13;;;1.53;;
3589;SDS011;1809;48.470;9.226;2023-01-10T09:03:38;9.00;;;1.50;;
3589;SDS011;1809;48.470;9.226;2023-01-10T09:06:04;3.47;;;1.70;;
3589;SDS011;1809;48.470;9.226;2023-01-10T09:08:30;11.83;;;2.20;;
3589;SDS011;1809;48.470;9.226;2023-01-10T09:10:58;9.30;;;1.90;;
3589;SDS011;1809;48.470;9.226;2023-01-10T09:13:24;3.87;;;2.40;;
3589;SDS011;1809;48.470;9.226;2023-01-10T09:15:50;8.30;;;2.50;;
3589;SDS011;1809;48.470;9.226;2023-01-10T09:18:16;2.77;;;1.93;;
3589;SDS011;1809;48.470;9.226;2023-01-10T09:20:42;2.23;;;1.73;;
3589;SDS011;1809;48.470;9.226;2023-01-10T09:23:09;4.63;;;1.30;;
3589;SDS011;1809;48.470;9.226;2023-01-10T09:25:36;5.53;;;1.53;;
3589;SDS011;1809;48.470;9.226;2023-01-10T09:28:03;4.73;;;1.93;;
3589;SDS011;1809;48.470;9.226;2023-01-10T09:30:29;5.13;;;1.40;;
3589;SDS011;1809;48.470;9.226;2023-01-10T09:32:55;5.03;;;1.10;;
3589;SDS011;1809;48.470;9.226;2023-01-10T09:35:22;2.77;;;1.47;;
3589;SDS011;1809;48.470;9.226;2023-01-10T09:37:48;5.83;;;1.87;;
3589;SDS011;1809;48.470;9.226;2023-01-10T09:40:15;1.97;;;1.77;;
3589;SDS011;1809;48.470;9.226;2023-01-10T09:42:53;3.27;;;1.60;;
3589;SDS011;1809;48.470;9.226;2023-01-10T09:45:31;7.60;;;2.37;;
3589;SDS011;1809;48.470;9.226;2023-01-10T09:48:19;7.63;;;2.20;;
3589;SDS011;1809;48.470;9.226;2023-01-10T09:51:51;5.03;;;1.90;;
3589;SDS011;1809;48.470;9.226;2023-01-10T09:53:57;4.70;;;1.13;;
3589;SDS011;1809;48.470;9.226;2023-01-10T09:56:24;3.03;;;1.10;;
3589;SDS011;1809;48.470;9.226;2023-01-10T09:58:50;3.20;;;1.63;;
3589;SDS011;1809;48.470;9.226;2023-01-10T10:01:17;3.70;;;1.37;;
3589;SDS011;1809;48.470;9.226;2023-01-10T10:06:30;1.47;;;1.37;;
3589;SDS011;1809;48.470;9.226;2023-01-10T10:08:58;3.47;;;1.40;;
3589;SDS011;1809;48.470;9.226;2023-01-10T10:31:33;2.00;;;1.07;;
3589;SDS011;1809;48.470;9.226;2023-01-10T10:34:20;4.23;;;1.20;;
3589;SDS011;1809;48.470;9.226;2023-01-10T10:36:52;2.77;;;1.50;;
3589;SDS011;1809;48.470;9.226;2023-01-10T10:39:22;5.73;;;2.13;;
3589;SDS011;1809;48.470;9.226;2023-01-10T10:41:54;5.00;;;1.20;;
3589;SDS011;1809;48.470;9.226;2023-01-10T10:44:37;5.97;;;1.67;;
3589;SDS011;1809;48.470;9.226;2023-01-10T10:47:15;2.03;;;1.83;;
3589;SDS011;1809;48.470;9.226;2023-01-10T10:52:28;3.27;;;1.10;;
3589;SDS011;1809;48.470;9.226;2023-01-10T10:54:56;5.10;;;3.00;;
3589;SDS011;1809;48.470;9.226;2023-01-10T10:57:28;6.80;;;1.50;;
3589;SDS011;1809;48.470;9.226;2023-01-10T10:59:58;2.90;;;1.00;;
3589;SDS011;1809;48.470;9.226;2023-01-10T11:02:27;6.50;;;1.50;;
3589;SDS011;1809;48.470;9.226;2023-01-10T11:04:57;1.80;;;0.97;;
3589;SDS011;1809;48.470;9.226;2023-01-10T11:07:24;2.80;;;1.20;;
3589;SDS011;1809;48.470;9.226;2023-01-10T11:09:53;3.20;;;1.50;;
3589;SDS011;1809;48.470;9.226;2023-01-10T11:12:27;5.07;;;1.00;;
3589;SDS011;1809;48.470;9.226;2023-01-10T11:14:56;2.40;;;0.83;;
3589;SDS011;1809;48.470;9.226;2023-01-10T11:17:29;6.50;;;1.27;;
3589;SDS011;1809;48.470;9.226;2023-01-10T11:19:58;3.63;;;1.40;;
3589;SDS011;1809;48.470;9.226;2023-01-10T11:22:38;8.07;;;1.03;;
3589;SDS011;1809;48.470;9.226;2023-01-10T11:25:15;2.93;;;0.90;;
3589;SDS011;1809;48.470;9.226;2023-01-10T11:27:56;5.93;;;2.17;;
3589;SDS011;1809;48.470;9.226;2023-01-10T11:30:29;1.77;;;1.40;;
3589;SDS011;1809;48.470;9.226;2023-01-10T11:33:02;8.83;;;1.50;;
3589;SDS011;1809;48.470;9.226;2023-01-10T11:35:31;4.00;;;1.10;;
3589;SDS011;1809;48.470;9.226;2023-01-10T11:40:38;4.07;;;1.53;;
3589;SDS011;1809;48.470;9.226;2023-01-10T11:43:28;6.90;;;1.00;;
3589;SDS011;1809;48.470;9.226;2023-01-10T11:46:03;2.47;;;1.03;;
3589;SDS011;1809;48.470;9.226;2023-01-10T11:48:43;1.40;;;1.30;;
3589;SDS011;1809;48.470;9.226;2023-01-10T11:51:15;3.63;;;1.20;;
3589;SDS011;1809;48.470;9.226;2023-01-10T11:53:43;5.17;;;1.40;;
3589;SDS011;1809;48.470;9.226;2023-01-10T11:56:13;4.60;;;1.30;;
3589;SDS011;1809;48.470;9.226;2023-01-10T11:58:48;1.90;;;1.37;;
3589;SDS011;1809;48.470;9.226;2023-01-10T12:03:58;3.47;;;1.20;;
3589;SDS011;1809;48.470;9.226;2023-01-10T12:06:24;6.30;;;1.83;;
3589;SDS011;1809;48.470;9.226;2023-01-10T12:08:51;18.53;;;3.80;;
3589;SDS011;1809;48.470;9.226;2023-01-10T12:11:27;5.53;;;1.50;;
3589;SDS011;1809;48.470;9.226;2023-01-10T12:13:56;2.77;;;1.57;;
3589;SDS011;1809;48.470;9.226;2023-01-10T12:16:24;3.60;;;1.30;;
3589;SDS011;1809;48.470;9.226;2023-01-10T12:18:55;3.67;;;1.43;;
3589;SDS011;1809;48.470;9.226;2023-01-10T12:21:45;4.50;;;3.37;;
3589;SDS011;1809;48.470;9.226;2023-01-10T12:24:23;3.40;;;1.83;;
3589;SDS011;1809;48.470;9.226;2023-01-10T12:26:58;3.03;;;1.67;;
3589;SDS011;1809;48.470;9.226;2023-01-10T12:29:32;4.50;;;1.20;;
3589;SDS011;1809;48.470;9.226;2023-01-10T12:32:00;3.70;;;1.97;;
3589;SDS011;1809;48.470;9.226;2023-01-10T12:34:43;3.87;;;2.03;;
3589;SDS011;1809;48.470;9.226;2023-01-10T12:37:18;3.90;;;1.00;;
3589;SDS011;1809;48.470;9.226;2023-01-10T12:39:54;1.40;;;0.93;;
3589;SDS011;1809;48.470;9.226;2023-01-10T12:42:29;3.87;;;1.10;;
3589;SDS011;1809;48.470;9.226;2023-01-10T12:45:29;2.67;;;1.13;;
3589;SDS011;1809;48.470;9.226;2023-01-10T12:48:11;2.10;;;0.87;;
3589;SDS011;1809;48.470;9.226;2023-01-10T12:50:58;3.30;;;1.13;;
3589;SDS011;1809;48.470;9.226;2023-01-10T12:53:35;1.87;;;1.13;;
3589;SDS011;1809;48.470;9.226;2023-01-10T12:56:05;3.80;;;1.20;;
3589;SDS011;1809;48.470;9.226;2023-01-10T12:58:39;3.47;;;1.43;;
3589;SDS011;1809;48.470;9.226;2023-01-10T13:01:09;1.30;;;1.00;;
3589;SDS011;1809;48.470;9.226;2023-01-10T13:03:45;2.70;;;1.10;;
3589;SDS011;1809;48.470;9.226;2023-01-10T13:06:29;10.93;;;2.70;;
3589;SDS011;1809;48.470;9.226;2023-01-10T13:08:57;2.40;;;1.27;;
3589;SDS011;1809;48.470;9.226;2023-01-10T13:11:28;2.23;;;1.20;;
3589;SDS011;1809;48.470;9.226;2023-01-10T13:13:59;0.90;;;0.90;;
3589;SDS011;1809;48.470;9.226;2023-01-10T13:21:38;5.83;;;1.00;;
3589;SDS011;1809;48.470;9.226;2023-01-10T13:24:27;6.30;;;1.07;;
3589;SDS011;1809;48.470;9.226;2023-01-10T13:26:53;3.50;;;0.93;;
3589;SDS011;1809;48.470;9.226;2023-01-10T13:29:25;3.43;;;1.27;;
3589;SDS011;1809;48.470;9.226;2023-01-10T13:31:54;4.23;;;1.03;;
3589;SDS011;1809;48.470;9.226;2023-01-10T13:34:25;2.03;;;0.87;;
3589;SDS011;1809;48.470;9.226;2023-01-10T13:37:01;5.67;;;1.13;;
3589;SDS011;1809;48.470;9.226;2023-01-10T13:39:55;3.97;;;1.07;;
3589;SDS011;1809;48.470;9.226;2023-01-10T13:42:33;7.23;;;1.00;;
3589;SDS011;1809;48.470;9.226;2023-01-10T13:45:20;4.27;;;1.00;;
3589;SDS011;1809;48.470;9.226;2023-01-10T13:52:47;4.30;;;1.80;;
3589;SDS011;1809;48.470;9.226;2023-01-10T13:55:21;1.60;;;1.10;;
3589;SDS011;1809;48.470;9.226;2023-01-10T13:57:47;4.23;;;1.67;;
3589;SDS011;1809;48.470;9.226;2023-01-10T14:02:45;9.07;;;3.10;;
3589;SDS011;1809;48.470;9.226;2023-01-10T14:05:16;11.70;;;4.13;;
3589;SDS011;1809;48.470;9.226;2023-01-10T14:10:21;7.17;;;2.93;;
3589;SDS011;1809;48.470;9.226;2023-01-10T14:15:30;10.90;;;5.50;;
3589;SDS011;1809;48.470;9.226;2023-01-10T14:18:04;3.33;;;1.63;;
3589;SDS011;1809;48.470;9.226;2023-01-10T14:20:39;6.77;;;1.67;;
3589;SDS011;1809;48.470;9.226;2023-01-10T14:25:40;11.07;;;4.07;;
3589;SDS011;1809;48.470;9.226;2023-01-10T14:28:21;5.73;;;1.43;;
3589;SDS011;1809;48.470;9.226;2023-01-10T14:31:32;2.57;;;1.27;;
3589;SDS011;1809;48.470;9.226;2023-01-10T14:33:42;5.47;;;1.53;;
3589;SDS011;1809;48.470;9.226;2023-01-10T14:36:08;3.20;;;1.60;;
3589;SDS011;1809;48.470;9.226;2023-01-10T14:38:40;4.63;;;1.67;;
3589;SDS011;1809;48.470;9.226;2023-01-10T14:43:48;3.43;;;1.30;;
3589;SDS011;1809;48.470;9.226;2023-01-10T14:46:20;3.50;;;1.60;;
3589;SDS011;1809;48.470;9.226;2023-01-10T14:48:54;1.30;;;0.93;;
3589;SDS011;1809;48.470;9.226;2023-01-10T14:51:28;6.63;;;1.50;;
3589;SDS011;1809;48.470;9.226;2023-01-10T14:54:03;5.47;;;2.73;;
3589;SDS011;1809;48.470;9.226;2023-01-10T14:56:36;4.13;;;1.90;;
3589;SDS011;1809;48.470;9.226;2023-01-10T15:02:02;2.13;;;1.70;;
3589;SDS011;1809;48.470;9.226;2023-01-10T15:04:46;2.93;;;1.20;;
3589;SDS011;1809;48.470;9.226;2023-01-10T15:07:33;1.87;;;1.50;;
3589;SDS011;1809;48.470;9.226;2023-01-10T15:10:00;5.10;;;1.63;;
3589;SDS011;1809;48.470;9.226;2023-01-10T15:12:34;4.70;;;1.70;;
3589;SDS011;1809;48.470;9.226;2023-01-10T15:15:02;6.13;;;1.30;;
3589;SDS011;1809;48.470;9.226;2023-01-10T15:17:32;1.40;;;1.10;;
3589;SDS011;1809;48.470;9.226;2023-01-10T15:19:58;4.27;;;1.27;;
3589;SDS011;1809;48.470;9.226;2023-01-10T15:22:28;4.93;;;2.07;;
3589;SDS011;1809;48.470;9.226;2023-01-10T15:25:05;9.27;;;5.10;;
3589;SDS011;1809;48.470;9.226;2023-01-10T15:27:52;8.83;;;4.77;;
3589;SDS011;1809;48.470;9.226;2023-01-10T15:30:22;4.00;;;2.00;;
3589;SDS011;1809;48.470;9.226;2023-01-10T15:32:51;7.53;;;2.50;;
3589;SDS011;1809;48.470;9.226;2023-01-10T15:35:27;4.30;;;1.67;;
3589;SDS011;1809;48.470;9.226;2023-01-10T15:37:57;6.40;;;2.77;;
3589;SDS011;1809;48.470;9.226;2023-01-10T15:40:28;4.00;;;2.33;;
3589;SDS011;1809;48.470;9.226;2023-01-10T15:45:49;11.53;;;3.17;;
3589;SDS011;1809;48.470;9.226;2023-01-10T15:48:25;6.00;;;2.83;;
3589;SDS011;1809;48.470;9.226;2023-01-10T15:50:56;14.23;;;1.50;;
3589;SDS011;1809;48.470;9.226;2023-01-10T15:56:21;7.03;;;3.00;;
3589;SDS011;1809;48.470;9.226;2023-01-10T15:58:50;5.97;;;2.50;;
3589;SDS011;1809;48.470;9.226;2023-01-10T16:01:17;5.43;;;2.47;;
3589;SDS011;1809;48.470;9.226;2023-01-10T16:03:43;8.23;;;4.37;;
3589;SDS011;1809;48.470;9.226;2023-01-10T16:06:38;3.37;;;3.00;;
3589;SDS011;1809;48.470;9.226;2023-01-10T16:09:07;5.23;;;2.60;;
3589;SDS011;1809;48.470;9.226;2023-01-10T16:11:45;2.90;;;2.40;;
3589;SDS011;1809;48.470;9.226;2023-01-10T16:14:31;6.70;;;4.13;;
3589;SDS011;1809;48.470;9.226;2023-01-10T16:17:00;4.33;;;2.60;;
3589;SDS011;1809;48.470;9.226;2023-01-10T16:19:26;1.73;;;1.63;;
3589;SDS011;1809;48.470;9.226;2023-01-10T16:21:52;3.27;;;2.20;;
3589;SDS011;1809;48.470;9.226;2023-01-10T16:24:22;6.40;;;2.70;;
3589;SDS011;1809;48.470;9.226;2023-01-10T16:26:52;6.40;;;2.80;;
3589;SDS011;1809;48.470;9.226;2023-01-10T16:29:20;3.30;;;2.47;;
3589;SDS011;1809;48.470;9.226;2023-01-10T16:31:46;5.70;;;3.90;;
3589;SDS011;1809;48.470;9.226;2023-01-10T16:34:16;7.70;;;2.77;;
3589;SDS011;1809;48.470;9.226;2023-01-10T16:36:42;1.60;;;1.50;;
3589;SDS011;1809;48.470;9.226;2023-01-10T16:39:18;2.67;;;1.30;;
3589;SDS011;1809;48.470;9.226;2023-01-10T16:41:45;4.00;;;1.33;;
3589;SDS011;1809;48.470;9.226;2023-01-10T16:44:30;13.53;;;4.20;;
3589;SDS011;1809;48.470;9.226;2023-01-10T16:46:56;6.70;;;1.67;;
3589;SDS011;1809;48.470;9.226;2023-01-10T16:49:22;4.20;;;1.30;;
3589;SDS011;1809;48.470;9.226;2023-01-10T16:51:48;12.83;;;4.30;;
3589;SDS011;1809;48.470;9.226;2023-01-10T16:54:15;9.13;;;4.73;;
3589;SDS011;1809;48.470;9.226;2023-01-10T16:56:43;8.27;;;3.20;;
3589;SDS011;1809;48.470;9.226;2023-01-10T16:59:10;5.87;;;3.40;;
3589;SDS011;1809;48.470;9.226;2023-01-10T17:01:40;4.50;;;2.40;;
3589;SDS011;1809;48.470;9.226;2023-01-10T17:04:10;5.53;;;2.83;;
3589;SDS011;1809;48.470;9.226;2023-01-10T17:06:41;4.27;;;3.17;;
3589;SDS011;1809;48.470;9.226;2023-01-10T17:09:09;3.13;;;2.23;;
3589;SDS011;1809;48.470;9.226;2023-01-10T17:11:41;9.87;;;4.40;;
3589;SDS011;1809;48.470;9.226;2023-01-10T17:14:08;2.83;;;1.93;;